Time;durP1;ratioP1;P1;durP2;ratioP2;P2;SDS_P1;SDS_P2;PMS_P1;PMS_P2;Temp;Humidity;BMP_temperature;BMP_pressure;BME280_temperature;BME280_humidity;BME280_pressure;Samples;Min_cycle;Max_cycle;Signal;HPM_P1;HPM_P2
2022/10/28 00:01:20;;;;;;;14.30;11.32;;;14.40;99.90;;;;;;5014297;28;20087;-78
2022/10/28 00:03:57;;;;;;;12.85;11.45;;;14.40;99.90;;;;;;4994554;28;20088;-78
2022/10/28 00:06:32;;;;;;;13.90;11.65;;;14.50;99.90;;;;;;4993030;28;20044;-79
2022/10/28 00:08:58;;;;;;;13.80;11.32;;;14.40;99.90;;;;;;4997538;28;20053;-78
2022/10/28 00:11:29;;;;;;;14.93;10.60;;;14.40;99.90;;;;;;4998249;28;20415;-78
2022/10/28 00:13:57;;;;;;;15.88;11.23;;;14.40;99.90;;;;;;4996275;28;20038;-78
2022/10/28 00:16:28;;;;;;;16.40;10.98;;;14.40;99.90;;;;;;4985740;28;20566;-78
2022/10/28 00:18:54;;;;;;;12.93;10.88;;;14.40;99.90;;;;;;5008493;28;20064;-78
2022/10/28 00:21:24;;;;;;;12.88;11.32;;;14.40;99.90;;;;;;4981584;28;20068;-78
2022/10/28 00:23:50;;;;;;;14.25;11.25;;;14.40;99.90;;;;;;4978920;28;20042;-79
2022/10/28 00:26:18;;;;;;;14.55;11.57;;;14.40;99.90;;;;;;4989055;28;20045;-78
2022/10/28 00:28:46;;;;;;;13.52;10.95;;;14.30;99.90;;;;;;5011640;28;20075;-78
2022/10/28 00:31:15;;;;;;;14.77;10.85;;;14.40;99.90;;;;;;5018009;28;20048;-78
2022/10/28 00:33:41;;;;;;;14.45;10.30;;;14.30;99.90;;;;;;5012857;28;20029;-78
2022/10/28 00:36:19;;;;;;;15.43;10.80;;;14.30;99.90;;;;;;4993592;28;20387;-78
2022/10/28 00:38:47;;;;;;;13.43;10.85;;;14.30;99.90;;;;;;4991115;28;20431;-78
2022/10/28 00:41:16;;;;;;;15.90;11.55;;;14.20;99.90;;;;;;4992536;28;20060;-78
2022/10/28 00:43:54;;;;;;;15.50;11.02;;;14.20;99.90;;;;;;5008171;28;20127;-78
2022/10/28 00:46:49;;;;;;;12.73;10.73;;;14.20;99.90;;;;;;4997248;28;20056;-78
2022/10/28 00:49:22;;;;;;;16.23;11.90;;;14.10;99.90;;;;;;5000523;28;20171;-78
2022/10/28 00:51:52;;;;;;;14.55;11.50;;;14.10;99.90;;;;;;5001831;28;20129;-78
2022/10/28 00:54:19;;;;;;;13.85;11.98;;;14.10;99.90;;;;;;5017267;28;20088;-78
2022/10/28 00:56:49;;;;;;;12.25;10.68;;;14.10;99.90;;;;;;5010961;28;20147;-78
2022/10/28 00:59:28;;;;;;;18.77;11.63;;;14.10;99.90;;;;;;4995838;28;20039;-78
2022/10/28 01:01:54;;;;;;;17.92;11.30;;;14.00;99.90;;;;;;4990056;28;20072;-78
2022/10/28 01:04:20;;;;;;;14.75;11.50;;;13.90;99.90;;;;;;5008397;28;20087;-78
2022/10/28 01:06:47;;;;;;;20.42;11.25;;;13.80;99.90;;;;;;4986028;28;20038;-78
2022/10/28 01:09:13;;;;;;;15.50;12.15;;;13.90;99.90;;;;;;4992509;28;20037;-78
2022/10/28 01:11:47;;;;;;;13.82;10.27;;;13.90;99.90;;;;;;4992673;28;20037;-78
2022/10/28 01:14:22;;;;;;;15.18;10.77;;;13.80;99.90;;;;;;5000623;28;20039;-78
2022/10/28 01:17:18;;;;;;;13.80;10.85;;;13.80;99.90;;;;;;4991322;28;20172;-78
2022/10/28 01:19:53;;;;;;;15.38;11.57;;;13.70;99.90;;;;;;5000331;28;20044;-78
2022/10/28 01:22:28;;;;;;;15.35;11.20;;;13.70;99.90;;;;;;4975740;28;20049;-78
2022/10/28 01:25:06;;;;;;;16.20;12.40;;;13.60;99.90;;;;;;4968572;28;20073;-78
2022/10/28 01:27:40;;;;;;;19.77;12.52;;;13.60;99.90;;;;;;4997978;28;20694;-78
2022/10/28 01:30:08;;;;;;;18.20;12.00;;;13.60;99.90;;;;;;5007393;28;20041;-78
2022/10/28 01:32:34;;;;;;;14.10;11.18;;;13.50;99.90;;;;;;4994610;28;20434;-78
2022/10/28 01:35:05;;;;;;;14.27;11.68;;;13.50;99.90;;;;;;5008043;28;20042;-78
2022/10/28 01:37:56;;;;;;;15.18;11.05;;;13.50;99.90;;;;;;4981891;28;20408;-77
2022/10/28 01:40:32;;;;;;;17.02;12.00;;;13.50;99.90;;;;;;4984580;28;20038;-77
2022/10/28 01:43:19;;;;;;;18.35;12.30;;;13.40;99.90;;;;;;4977148;28;20046;-78
2022/10/28 01:45:58;;;;;;;15.95;12.77;;;13.40;99.90;;;;;;5004520;28;20136;-78
2022/10/28 01:48:49;;;;;;;19.73;12.20;;;13.40;99.90;;;;;;5003748;28;20037;-77
2022/10/28 01:51:25;;;;;;;15.48;11.52;;;13.30;99.90;;;;;;4990950;28;20072;-78
2022/10/28 01:53:55;;;;;;;16.25;13.40;;;13.30;99.90;;;;;;4999144;28;20448;-78
2022/10/28 01:56:26;;;;;;;16.70;13.25;;;13.30;99.90;;;;;;5008842;28;20120;-78
2022/10/28 01:58:55;;;;;;;19.45;13.25;;;13.30;99.90;;;;;;5016043;28;20041;-78
2022/10/28 02:01:22;;;;;;;20.20;13.80;;;13.30;99.90;;;;;;4999291;28;20551;-78
2022/10/28 02:03:48;;;;;;;17.58;13.35;;;13.30;99.90;;;;;;4996378;28;20050;-78
2022/10/28 02:06:18;;;;;;;18.25;13.73;;;13.20;99.90;;;;;;4998279;22;20394;-77
2022/10/28 02:09:17;;;;;;;19.50;15.02;;;13.20;99.90;;;;;;5002161;28;20097;-78
2022/10/28 02:12:12;;;;;;;17.55;13.30;;;13.20;99.90;;;;;;4961145;28;20042;-78
2022/10/28 02:14:47;;;;;;;19.63;13.32;;;13.20;99.90;;;;;;4985377;28;20050;-78
2022/10/28 02:17:18;;;;;;;21.25;14.63;;;13.20;99.90;;;;;;5006049;28;20104;-78
2022/10/28 02:20:23;;;;;;;20.08;15.30;;;13.10;99.90;;;;;;5014201;28;20045;-77
2022/10/28 02:22:53;;;;;;;18.15;14.27;;;13.10;99.90;;;;;;4986406;28;20049;-77
2022/10/28 02:25:24;;;;;;;21.65;16.23;;;13.10;99.90;;;;;;5016250;28;20056;-78
2022/10/28 02:28:01;;;;;;;23.60;16.95;;;13.10;99.90;;;;;;5013472;28;20033;-78
2022/10/28 02:30:38;;;;;;;20.33;15.68;;;13.10;99.90;;;;;;5000742;28;20504;-78
2022/10/28 02:33:10;;;;;;;20.00;15.65;;;13.10;99.90;;;;;;4980071;28;20065;-78
2022/10/28 02:35:48;;;;;;;22.38;16.65;;;13.10;99.90;;;;;;5006978;28;20041;-78
2022/10/28 02:38:18;;;;;;;22.42;16.02;;;13.20;99.90;;;;;;5002241;28;20040;-78
2022/10/28 02:40:50;;;;;;;26.75;19.80;;;13.10;99.90;;;;;;5015411;28;20535;-78
2022/10/28 02:43:18;;;;;;;23.90;17.40;;;13.10;99.90;;;;;;5015818;28;20084;-78
2022/10/28 02:45:48;;;;;;;23.67;16.60;;;13.20;99.90;;;;;;4981828;28;20038;-78
2022/10/28 02:48:35;;;;;;;20.63;16.38;;;13.20;99.90;;;;;;5014049;28;20037;-78
2022/10/28 02:51:10;;;;;;;19.63;16.48;;;13.10;99.90;;;;;;5015020;28;20403;-78
2022/10/28 02:54:13;;;;;;;27.35;17.92;;;13.10;99.90;;;;;;5015414;28;20052;-78
2022/10/28 02:56:51;;;;;;;22.27;16.33;;;13.00;99.90;;;;;;4992517;28;20052;-78
2022/10/28 02:59:17;;;;;;;20.23;15.15;;;13.10;99.90;;;;;;5004072;28;20041;-77
2022/10/28 03:01:43;;;;;;;21.00;15.90;;;13.00;99.90;;;;;;4981068;28;20037;-77
2022/10/28 03:04:08;;;;;;;24.75;17.73;;;13.00;99.90;;;;;;4987446;28;20132;-77
2022/10/28 03:06:34;;;;;;;27.90;17.35;;;13.00;99.90;;;;;;5007437;28;20033;-78
2022/10/28 03:08:59;;;;;;;25.52;17.80;;;13.00;99.90;;;;;;5009655;28;20038;-77
2022/10/28 03:11:25;;;;;;;24.33;18.60;;;12.90;99.90;;;;;;5001650;28;20110;-78
2022/10/28 03:13:51;;;;;;;25.92;19.05;;;12.90;99.90;;;;;;4991527;28;20049;-78
2022/10/28 03:16:16;;;;;;;22.73;17.67;;;12.90;99.90;;;;;;5009453;28;20045;-78
2022/10/28 03:18:42;;;;;;;26.05;18.98;;;12.90;99.90;;;;;;4995539;28;20499;-77
2022/10/28 03:21:07;;;;;;;26.33;18.65;;;12.90;99.90;;;;;;4995560;28;20048;-78
2022/10/28 03:23:33;;;;;;;27.20;18.90;;;12.90;99.90;;;;;;5000991;28;20052;-77
2022/10/28 03:25:59;;;;;;;29.30;19.23;;;12.90;99.90;;;;;;4986645;28;20046;-78
2022/10/28 03:28:24;;;;;;;28.75;20.23;;;12.90;99.90;;;;;;4995339;28;20076;-78
2022/10/28 03:30:50;;;;;;;29.70;19.67;;;12.90;99.90;;;;;;4997464;28;20192;-77
2022/10/28 03:33:15;;;;;;;32.78;20.85;;;12.90;99.90;;;;;;5015098;28;20041;-78
2022/10/28 03:35:41;;;;;;;30.90;22.30;;;12.80;99.90;;;;;;4994457;28;20063;-77
2022/10/28 03:38:07;;;;;;;28.65;21.42;;;12.90;99.90;;;;;;5003858;28;20084;-78
2022/10/28 03:40:33;;;;;;;30.15;21.05;;;12.90;99.90;;;;;;4994745;28;20072;-77
2022/10/28 03:42:58;;;;;;;33.85;23.33;;;13.00;99.90;;;;;;4995003;28;20053;-77
2022/10/28 03:45:24;;;;;;;40.75;23.08;;;12.90;99.90;;;;;;4978834;28;20044;-77
2022/10/28 03:47:50;;;;;;;28.63;21.55;;;13.00;99.90;;;;;;4992671;28;20103;-77
2022/10/28 03:50:15;;;;;;;35.22;21.90;;;12.90;99.90;;;;;;4996082;28;20473;-77
2022/10/28 03:52:45;;;;;;;35.20;23.15;;;13.00;99.90;;;;;;4994797;28;20034;-77
2022/10/28 03:55:10;;;;;;;32.50;22.92;;;12.90;99.90;;;;;;4994944;28;20099;-77
2022/10/28 03:57:36;;;;;;;31.40;20.80;;;12.90;99.90;;;;;;5004806;28;20045;-77
2022/10/28 04:00:03;;;;;;;31.10;23.42;;;13.00;99.90;;;;;;4997662;28;20072;-78
2022/10/28 04:02:29;;;;;;;32.72;22.40;;;12.90;99.90;;;;;;4995598;28;20407;-78
2022/10/28 04:04:54;;;;;;;33.30;21.67;;;13.00;99.90;;;;;;5018547;28;20045;-77
2022/10/28 04:07:20;;;;;;;39.40;21.77;;;13.00;99.90;;;;;;5016245;28;20415;-78
2022/10/28 04:09:48;;;;;;;30.67;22.20;;;12.90;99.90;;;;;;5018475;28;20176;-78
2022/10/28 04:12:14;;;;;;;32.92;22.33;;;12.90;99.90;;;;;;4996136;28;20048;-78
2022/10/28 04:14:39;;;;;;;34.00;22.63;;;12.90;99.90;;;;;;4992881;28;20097;-78
2022/10/28 04:17:05;;;;;;;30.92;23.00;;;13.00;99.90;;;;;;5007904;28;20661;-78
2022/10/28 04:19:30;;;;;;;31.83;22.25;;;13.00;99.90;;;;;;5005971;28;20064;-78
2022/10/28 04:21:56;;;;;;;29.17;22.33;;;13.00;99.90;;;;;;4998543;28;20046;-77
2022/10/28 04:24:22;;;;;;;29.63;21.95;;;12.90;99.90;;;;;;4978787;28;20042;-78
2022/10/28 04:26:47;;;;;;;26.60;21.63;;;13.00;99.90;;;;;;5009974;28;20052;-78
2022/10/28 04:29:13;;;;;;;31.50;22.08;;;13.00;99.90;;;;;;4999707;28;20523;-77
2022/10/28 04:31:38;;;;;;;32.35;22.80;;;13.00;99.90;;;;;;5005800;28;20037;-78
2022/10/28 04:34:04;;;;;;;28.33;20.75;;;13.00;99.90;;;;;;5001485;28;20045;-77
2022/10/28 04:36:29;;;;;;;28.30;20.35;;;13.10;99.90;;;;;;4999893;28;20034;-77
2022/10/28 04:38:55;;;;;;;27.33;19.95;;;13.10;99.90;;;;;;5009129;28;20100;-78
2022/10/28 04:41:20;;;;;;;29.25;20.63;;;13.00;99.90;;;;;;5017345;28;20037;-78
2022/10/28 04:43:46;;;;;;;29.63;20.55;;;13.00;99.90;;;;;;5017529;28;20045;-78
2022/10/28 04:46:11;;;;;;;30.17;20.73;;;13.00;99.90;;;;;;5015453;28;20045;-77
2022/10/28 04:48:37;;;;;;;31.63;21.80;;;13.00;99.90;;;;;;5002891;28;20514;-77
2022/10/28 04:51:03;;;;;;;26.67;20.27;;;13.00;99.90;;;;;;5016387;28;20048;-77
2022/10/28 04:53:29;;;;;;;31.75;20.65;;;13.00;99.90;;;;;;5008055;28;20041;-78
2022/10/28 04:55:58;;;;;;;30.42;20.75;;;13.00;99.90;;;;;;5010470;28;20042;-78
2022/10/28 04:58:24;;;;;;;29.77;20.10;;;13.00;99.90;;;;;;4996334;28;20088;-77
2022/10/28 05:00:50;;;;;;;26.98;20.63;;;13.00;99.90;;;;;;4996908;28;20160;-77
2022/10/28 05:03:15;;;;;;;27.13;20.55;;;13.00;99.90;;;;;;5004109;28;20563;-78
2022/10/28 05:05:41;;;;;;;27.55;20.23;;;13.00;99.90;;;;;;4995434;28;20119;-79
2022/10/28 05:08:07;;;;;;;32.55;20.08;;;13.00;99.90;;;;;;5000145;28;20061;-78
2022/10/28 05:10:33;;;;;;;28.80;20.77;;;13.00;99.90;;;;;;4988023;28;20427;-78
2022/10/28 05:12:58;;;;;;;24.70;19.08;;;13.00;99.90;;;;;;4987644;28;20042;-78
2022/10/28 05:15:25;;;;;;;26.25;18.85;;;13.00;99.90;;;;;;5014887;28;20041;-78
2022/10/28 05:17:51;;;;;;;22.48;18.08;;;13.00;99.90;;;;;;5002186;28;20042;-78
2022/10/28 05:20:18;;;;;;;24.38;18.52;;;13.00;99.90;;;;;;4985002;28;20446;-78
2022/10/28 05:22:53;;;;;;;29.23;19.17;;;13.00;99.90;;;;;;5007919;28;20071;-77
2022/10/28 05:25:20;;;;;;;27.60;18.13;;;12.90;99.90;;;;;;5016567;28;20042;-78
2022/10/28 05:27:45;;;;;;;27.27;18.83;;;13.00;99.90;;;;;;4987144;28;20088;-78
2022/10/28 05:30:11;;;;;;;25.23;17.48;;;13.00;99.90;;;;;;5009710;28;20034;-78
2022/10/28 05:32:37;;;;;;;26.23;18.35;;;13.10;99.90;;;;;;4996854;28;20037;-77
2022/10/28 05:35:03;;;;;;;28.40;18.50;;;13.10;99.90;;;;;;4997291;28;20038;-78
2022/10/28 05:37:29;;;;;;;21.52;17.85;;;13.10;99.90;;;;;;5005572;28;20042;-77
2022/10/28 05:39:54;;;;;;;23.42;18.13;;;13.10;99.90;;;;;;5000556;28;20490;-77
2022/10/28 05:42:20;;;;;;;21.75;17.23;;;13.10;99.90;;;;;;5016956;28;20510;-78
2022/10/28 05:44:45;;;;;;;29.60;18.00;;;13.10;99.90;;;;;;4996962;28;20158;-77
2022/10/28 05:47:11;;;;;;;24.45;16.30;;;13.10;99.90;;;;;;4991529;28;20451;-78
2022/10/28 05:49:36;;;;;;;24.77;17.15;;;13.10;99.90;;;;;;4999797;28;20037;-77
2022/10/28 05:52:02;;;;;;;21.50;16.23;;;13.10;99.90;;;;;;5016035;28;20073;-77
2022/10/28 05:54:28;;;;;;;24.38;16.90;;;13.10;99.90;;;;;;5016978;28;20037;-78
2022/10/28 05:56:53;;;;;;;26.55;16.70;;;13.10;99.90;;;;;;4994937;28;20033;-78
2022/10/28 05:59:19;;;;;;;22.83;17.27;;;13.10;99.90;;;;;;5015314;28;20041;-77
2022/10/28 06:01:44;;;;;;;25.80;16.23;;;13.10;99.90;;;;;;4997554;28;20128;-78
2022/10/28 06:04:10;;;;;;;22.00;17.25;;;13.10;99.90;;;;;;4998869;28;20070;-77
2022/10/28 06:06:36;;;;;;;20.75;15.70;;;13.00;99.90;;;;;;4996257;28;20044;-78
2022/10/28 06:09:01;;;;;;;19.38;15.15;;;13.00;99.90;;;;;;5016058;28;20044;-77
2022/10/28 06:11:27;;;;;;;20.60;15.75;;;13.00;99.90;;;;;;5004799;28;20077;-77
2022/10/28 06:13:53;;;;;;;24.20;16.35;;;13.00;99.90;;;;;;4984751;28;20065;-77
2022/10/28 06:16:18;;;;;;;18.70;14.50;;;12.90;99.90;;;;;;4998692;28;20034;-78
2022/10/28 06:18:44;;;;;;;23.73;15.95;;;12.90;99.90;;;;;;5012558;28;20037;-77
2022/10/28 06:21:09;;;;;;;20.73;15.50;;;13.00;99.90;;;;;;4989200;28;20384;-77
2022/10/28 06:23:35;;;;;;;19.85;14.52;;;13.00;99.90;;;;;;5008693;28;20037;-77
2022/10/28 06:26:02;;;;;;;23.70;15.30;;;13.00;99.90;;;;;;4980530;28;20030;-77
2022/10/28 06:28:28;;;;;;;20.70;16.20;;;13.00;99.90;;;;;;5008997;28;20045;-78
2022/10/28 06:30:54;;;;;;;20.10;15.40;;;13.00;99.90;;;;;;5015888;28;20091;-78
2022/10/28 06:33:19;;;;;;;23.38;14.98;;;13.00;99.90;;;;;;4999868;28;20503;-79
2022/10/28 06:35:45;;;;;;;18.38;15.02;;;13.00;99.90;;;;;;4997157;28;20189;-78
2022/10/28 06:38:11;;;;;;;21.73;14.77;;;13.00;99.90;;;;;;4994498;28;20115;-78
2022/10/28 06:40:37;;;;;;;19.85;15.30;;;13.00;99.90;;;;;;4993994;28;20058;-79
2022/10/28 06:43:12;;;;;;;21.13;14.80;;;13.00;99.90;;;;;;5001206;28;20045;-78
2022/10/28 06:45:38;;;;;;;22.02;14.85;;;13.00;99.90;;;;;;5015185;28;20049;-79
2022/10/28 06:48:04;;;;;;;19.13;13.88;;;13.00;99.90;;;;;;4998271;28;20116;-78
2022/10/28 06:50:31;;;;;;;18.23;13.50;;;13.10;99.90;;;;;;5014774;28;20119;-78
2022/10/28 06:52:57;;;;;;;23.08;14.88;;;13.10;99.90;;;;;;5014730;28;20450;-78
2022/10/28 06:55:23;;;;;;;20.95;13.50;;;13.10;99.90;;;;;;4987550;28;21408;-78
2022/10/28 06:57:49;;;;;;;21.13;14.05;;;13.20;99.90;;;;;;5006463;28;20045;-78
2022/10/28 07:00:15;;;;;;;20.65;14.32;;;13.10;99.90;;;;;;5001157;28;20034;-78
2022/10/28 07:02:41;;;;;;;18.83;14.95;;;13.20;99.90;;;;;;5005370;28;20047;-78
2022/10/28 07:05:07;;;;;;;18.55;13.32;;;13.20;99.90;;;;;;5006191;28;20065;-80
2022/10/28 07:07:36;;;;;;;17.85;13.38;;;13.20;99.90;;;;;;5009535;28;20038;-79
2022/10/28 07:10:02;;;;;;;18.67;13.40;;;13.20;99.90;;;;;;4978771;28;20038;-79
2022/10/28 07:12:28;;;;;;;23.25;13.02;;;13.20;99.90;;;;;;4978524;28;20046;-78
2022/10/28 07:14:55;;;;;;;19.40;13.82;;;13.30;99.90;;;;;;4979343;28;20085;-80
2022/10/28 07:17:20;;;;;;;15.13;13.27;;;13.30;99.90;;;;;;4975210;28;20074;-78
2022/10/28 07:19:46;;;;;;;17.63;13.38;;;13.30;99.90;;;;;;4975249;28;20050;-78
2022/10/28 07:22:11;;;;;;;19.15;13.70;;;13.40;99.90;;;;;;4975310;28;20034;-78
2022/10/28 07:24:37;;;;;;;18.25;11.88;;;13.40;99.90;;;;;;4959532;28;20038;-79
2022/10/28 07:27:02;;;;;;;16.20;12.02;;;13.40;99.90;;;;;;4971568;28;20041;-79
2022/10/28 07:29:28;;;;;;;18.08;12.57;;;13.40;99.90;;;;;;4971143;28;20042;-79
2022/10/28 07:31:54;;;;;;;16.00;11.70;;;13.50;99.90;;;;;;4978472;28;20046;-79
2022/10/28 07:34:20;;;;;;;18.83;12.10;;;13.50;99.90;;;;;;4975040;28;20034;-79
2022/10/28 07:36:53;;;;;;;16.40;12.27;;;13.60;99.90;;;;;;4981335;28;20496;-78
2022/10/28 07:39:19;;;;;;;;;;;13.60;99.90;;;;;;4978857;28;20133;-79
2022/10/28 07:41:45;;;;;;;17.92;12.30;;;13.70;99.90;;;;;;4978529;28;20004;-78
2022/10/28 07:44:10;;;;;;;16.13;11.35;;;13.80;99.90;;;;;;4991372;28;20030;-78
2022/10/28 07:46:36;;;;;;;18.42;12.18;;;13.80;99.90;;;;;;4966530;28;20054;-79
2022/10/28 07:49:03;;;;;;;15.60;12.05;;;13.90;99.90;;;;;;4990365;28;20045;-79
2022/10/28 07:51:29;;;;;;;16.38;11.50;;;14.00;99.90;;;;;;4987004;28;20495;-78
2022/10/28 07:53:56;;;;;;;15.90;11.00;;;14.00;99.90;;;;;;4984676;28;20034;-78
2022/10/28 07:56:22;;;;;;;17.08;11.25;;;14.00;99.90;;;;;;4989241;28;20116;-78
2022/10/28 07:58:47;;;;;;;14.32;10.45;;;14.10;99.90;;;;;;4981001;28;20134;-79
2022/10/28 08:01:15;;;;;;;16.48;10.73;;;14.10;99.90;;;;;;5005413;28;20045;-79
2022/10/28 08:03:41;;;;;;;14.48;11.38;;;14.00;99.90;;;;;;4983096;28;20065;-78
2022/10/28 08:06:11;;;;;;;12.10;9.95;;;14.10;99.90;;;;;;4993979;22;20062;-78
2022/10/28 08:08:38;;;;;;;13.30;9.88;;;14.20;99.90;;;;;;5006020;28;20566;-78
2022/10/28 08:11:17;;;;;;;16.15;10.32;;;14.20;99.90;;;;;;5002892;28;20052;-78
2022/10/28 08:13:44;;;;;;;15.23;9.75;;;14.30;99.90;;;;;;4978871;28;20049;-78
2022/10/28 08:16:10;;;;;;;12.20;9.65;;;14.30;99.90;;;;;;4978592;28;20038;-78
2022/10/28 08:18:37;;;;;;;14.35;10.50;;;14.40;99.90;;;;;;4991010;28;20427;-78
2022/10/28 08:21:05;;;;;;;17.35;10.55;;;14.50;99.90;;;;;;4993966;28;20542;-79
2022/10/28 08:23:34;;;;;;;18.88;11.25;;;14.50;99.90;;;;;;4994588;28;20462;-79
2022/10/28 08:26:01;;;;;;;13.55;9.93;;;14.60;99.90;;;;;;4993767;28;20121;-78
2022/10/28 08:28:27;;;;;;;13.90;10.23;;;14.70;99.90;;;;;;5006662;28;20407;-78
2022/10/28 08:31:03;;;;;;;12.80;9.95;;;14.80;99.90;;;;;;5005277;28;20099;-78
2022/10/28 08:33:31;;;;;;;15.15;9.93;;;14.90;99.90;;;;;;4991032;28;20088;-77
2022/10/28 08:35:57;;;;;;;13.40;10.02;;;15.00;99.90;;;;;;4993951;28;20037;-79
2022/10/28 08:38:24;;;;;;;15.60;9.45;;;15.10;99.90;;;;;;4996107;28;20034;-78
2022/10/28 08:41:07;;;;;;;14.18;9.27;;;15.20;99.90;;;;;;4994355;28;20038;-79
2022/10/28 08:43:59;;;;;;;12.13;9.32;;;15.30;99.90;;;;;;4996626;28;20654;-79
2022/10/28 08:46:48;;;;;;;13.85;9.40;;;15.50;99.90;;;;;;4988912;28;20035;-78
2022/10/28 08:49:24;;;;;;;13.52;8.70;;;15.60;99.90;;;;;;4993601;28;20400;-78
2022/10/28 08:51:54;;;;;;;;;;;15.70;99.90;;;;;;4996199;28;20038;-78
2022/10/28 08:54:26;;;;;;;14.40;8.95;;;15.90;99.90;;;;;;4998512;28;19928;-81
2022/10/28 08:57:07;;;;;;;11.35;7.50;;;16.00;99.90;;;;;;4996018;28;20061;-81
2022/10/28 08:59:40;;;;;;;14.02;7.93;;;16.10;99.90;;;;;;4996040;28;20042;-80
2022/10/28 09:02:23;;;;;;;13.05;8.00;;;16.20;99.90;;;;;;4984075;28;20066;-79
2022/10/28 09:04:58;;;;;;;;;;;16.20;99.90;;;;;;4986419;28;20404;-81
2022/10/28 09:07:36;;;;;;;15.25;7.32;;;16.30;99.90;;;;;;4984742;28;19928;-81
2022/10/28 09:10:09;;;;;;;10.20;6.55;;;16.30;99.90;;;;;;4987071;28;20623;-80
2022/10/28 09:19:40;;;;;;;10.93;6.22;;;16.50;99.90;;;;;;4970709;28;20038;-82
2022/10/28 09:22:30;;;;;;;9.95;5.90;;;16.60;99.90;;;;;;4976828;28;20054;-82
2022/10/28 09:26:13;;;;;;;12.57;6.00;;;16.60;99.90;;;;;;4981271;28;20050;-82
2022/10/28 09:29:53;;;;;;;10.20;5.68;;;16.70;99.90;;;;;;4963423;28;20514;-83
2022/10/28 10:13:02;;;;;;;6.80;5.20;;;17.70;99.90;;;;;;5017274;28;20046;-79
2022/10/28 10:15:40;;;;;;;11.30;5.38;;;17.80;99.90;;;;;;5010814;28;20504;-81
2022/10/28 10:18:21;;;;;;;8.95;4.45;;;18.00;99.90;;;;;;4984426;28;20049;-79
2022/10/28 10:24:29;;;;;;;11.35;5.05;;;18.10;99.90;;;;;;4992365;28;20047;-80
2022/10/28 10:26:56;;;;;;;8.35;4.72;;;18.10;99.90;;;;;;4995345;23;20172;-77
2022/10/28 10:29:23;;;;;;;9.02;4.93;;;18.10;99.90;;;;;;4981795;28;20038;-77
2022/10/28 10:32:15;;;;;;;8.30;4.97;;;18.10;99.90;;;;;;4976478;28;20462;-79
2022/10/28 10:35:09;;;;;;;8.80;4.75;;;18.10;99.90;;;;;;4982985;28;20515;-77
2022/10/28 10:37:40;;;;;;;9.68;5.00;;;18.10;99.90;;;;;;4974266;28;20140;-76
2022/10/28 10:40:21;;;;;;;10.18;4.55;;;18.10;99.90;;;;;;4975896;28;20128;-76
2022/10/28 10:42:47;;;;;;;9.55;4.78;;;18.20;99.90;;;;;;4975552;28;20042;-77
2022/10/28 10:45:27;;;;;;;8.18;4.10;;;18.10;99.90;;;;;;4993880;28;20108;-77
2022/10/28 10:48:10;;;;;;;10.73;4.60;;;18.20;99.90;;;;;;4976412;28;20039;-77
2022/10/28 10:50:36;;;;;;;14.20;5.38;;;18.20;99.90;;;;;;4960382;28;20100;-77
2022/10/28 10:53:03;;;;;;;9.45;4.60;;;18.30;99.90;;;;;;4956996;28;20042;-77
2022/10/28 10:55:39;;;;;;;9.25;4.57;;;18.30;99.90;;;;;;4960310;28;20066;-76
2022/10/28 10:58:15;;;;;;;9.48;4.70;;;18.50;99.90;;;;;;4993234;28;20099;-77
2022/10/28 11:00:46;;;;;;;14.38;5.10;;;18.60;99.90;;;;;;4969884;28;20053;-76
2022/10/28 11:03:41;;;;;;;7.60;4.32;;;18.90;99.90;;;;;;4957377;28;20405;-76
2022/10/28 11:06:17;;;;;;;9.63;5.30;;;19.10;99.90;;;;;;4956314;28;20046;-76
2022/10/28 11:08:43;;;;;;;11.00;4.30;;;19.30;99.90;;;;;;4991658;28;20238;-77
2022/10/28 11:11:20;;;;;;;9.75;4.30;;;19.40;99.90;;;;;;4960972;28;20133;-77
2022/10/28 11:13:47;;;;;;;9.88;4.95;;;19.50;99.90;;;;;;4957402;28;20038;-77
2022/10/28 11:16:22;;;;;;;12.07;5.22;;;19.60;99.90;;;;;;4962722;28;20045;-78
2022/10/28 11:18:50;;;;;;;10.45;4.68;;;19.70;99.90;;;;;;4960007;28;20048;-76
2022/10/28 11:21:43;;;;;;;10.50;4.95;;;19.70;99.90;;;;;;4979956;28;20566;-76
2022/10/28 11:24:18;;;;;;;11.00;4.90;;;19.70;99.90;;;;;;4958177;28;20038;-75
2022/10/28 11:27:01;;;;;;;10.23;4.90;;;19.70;99.90;;;;;;4958983;28;20370;-75
2022/10/28 11:29:27;;;;;;;9.45;4.53;;;19.80;99.90;;;;;;4983102;28;20073;-77
2022/10/28 11:32:21;;;;;;;7.93;4.43;;;19.80;99.90;;;;;;4988525;28;20521;-76
2022/10/28 11:34:56;;;;;;;11.48;4.65;;;19.90;99.90;;;;;;4971335;28;20056;-76
2022/10/28 11:37:34;;;;;;;14.55;4.93;;;20.00;99.90;;;;;;4963761;28;20038;-76
2022/10/28 11:40:09;;;;;;;10.85;4.93;;;20.10;99.90;;;;;;4967220;28;20125;-77
2022/10/28 11:43:14;;;;;;;14.07;6.05;;;20.10;99.90;;;;;;4972509;28;20112;-75
2022/10/28 11:46:06;;;;;;;13.73;4.93;;;20.20;99.90;;;;;;4957726;28;20064;-76
2022/10/28 11:48:56;;;;;;;11.43;5.25;;;20.20;99.90;;;;;;4968216;28;20158;-77
2022/10/28 11:51:27;;;;;;;13.65;4.97;;;20.10;99.90;;;;;;4976857;28;20128;-77
2022/10/28 11:54:14;;;;;;;11.10;4.32;;;20.00;99.90;;;;;;4958416;28;20030;-76
2022/10/28 11:56:46;;;;;;;11.18;4.85;;;20.00;99.90;;;;;;4967710;28;20038;-77
2022/10/28 11:59:22;;;;;;;10.32;4.50;;;20.00;99.90;;;;;;4973465;28;20042;-75
2022/10/28 12:02:18;;;;;;;9.10;4.88;;;20.00;99.90;;;;;;4970364;28;20056;-75
2022/10/28 12:05:08;;;;;;;9.27;5.47;;;19.90;99.90;;;;;;4981545;28;20034;-75
2022/10/28 12:07:59;;;;;;;8.07;4.78;;;19.90;99.90;;;;;;4949486;28;20035;-75
2022/10/28 12:10:34;;;;;;;8.82;5.00;;;19.90;99.90;;;;;;4985913;28;20346;-76
2022/10/28 12:13:25;;;;;;;10.35;4.90;;;19.90;99.90;;;;;;4989936;28;20046;-75
2022/10/28 12:16:24;;;;;;;9.82;4.97;;;19.90;99.90;;;;;;4973172;28;20038;-77
2022/10/28 12:19:02;;;;;;;15.02;4.68;;;19.90;99.90;;;;;;4988015;28;20046;-76
2022/10/28 12:21:46;;;;;;;10.05;4.65;;;20.00;99.90;;;;;;4990486;28;20042;-76
2022/10/28 12:24:19;;;;;;;11.70;4.78;;;20.00;99.90;;;;;;4973909;28;20369;-76
2022/10/28 12:26:49;;;;;;;10.80;4.90;;;20.00;99.90;;;;;;4973107;28;20061;-76
2022/10/28 12:29:26;;;;;;;12.88;5.47;;;20.00;99.90;;;;;;4960453;28;20038;-76
2022/10/28 12:32:17;;;;;;;12.88;4.90;;;20.00;99.90;;;;;;4959412;28;20096;-76
2022/10/28 12:34:52;;;;;;;10.88;4.85;;;20.00;99.90;;;;;;4969794;28;20166;-76
2022/10/28 12:37:23;;;;;;;12.70;5.35;;;20.00;99.90;;;;;;4961246;28;20039;-76
2022/10/28 12:40:21;;;;;;;9.77;4.80;;;20.00;99.90;;;;;;4961606;28;20190;-76
2022/10/28 12:42:58;;;;;;;13.45;5.72;;;20.00;99.90;;;;;;4985669;28;20053;-78
2022/10/28 12:45:25;;;;;;;9.43;5.38;;;20.00;99.90;;;;;;4971578;28;20082;-79
2022/10/28 12:48:03;;;;;;;12.20;4.85;;;20.00;99.90;;;;;;4958934;28;20467;-78
2022/10/28 12:50:58;;;;;;;9.73;4.70;;;19.90;99.90;;;;;;4959124;28;20071;-78
2022/10/28 12:53:42;;;;;;;10.13;5.15;;;19.90;99.90;;;;;;4961251;28;20042;-78
2022/10/28 12:56:39;;;;;;;11.90;5.32;;;19.90;99.90;;;;;;4965316;28;20049;-78
2022/10/28 12:59:32;;;;;;;9.65;5.07;;;19.90;99.90;;;;;;4960675;28;20535;-77
2022/10/28 13:02:00;;;;;;;10.30;5.15;;;19.90;99.90;;;;;;4963546;28;20046;-78
2022/10/28 13:04:27;;;;;;;8.68;5.10;;;20.00;99.90;;;;;;4962069;28;20045;-78
2022/10/28 13:07:18;;;;;;;13.93;5.32;;;20.00;99.90;;;;;;4979052;28;20038;-78
2022/10/28 13:10:04;;;;;;;11.07;4.95;;;20.00;99.90;;;;;;4997649;28;20120;-78
2022/10/28 13:13:01;;;;;;;11.15;5.40;;;20.00;99.90;;;;;;4960194;28;20050;-78
2022/10/28 13:15:51;;;;;;;10.57;5.60;;;20.10;99.90;;;;;;4954942;28;20496;-77
2022/10/28 13:18:37;;;;;;;10.80;5.40;;;20.20;99.90;;;;;;4991706;28;20038;-78
2022/10/28 13:21:52;;;;;;;12.18;5.35;;;20.20;99.90;;;;;;4973231;28;20496;-77
2022/10/28 13:24:18;;;;;;;17.75;5.43;;;20.20;99.90;;;;;;4961424;28;20145;-77
2022/10/28 13:26:45;;;;;;;10.88;5.25;;;20.20;99.90;;;;;;4960084;28;20118;-77
2022/10/28 13:29:28;;;;;;;14.50;5.03;;;20.20;99.90;;;;;;4989588;28;20031;-77
2022/10/28 13:31:54;;;;;;;11.13;5.15;;;20.20;99.90;;;;;;4965987;28;20125;-77
2022/10/28 13:34:29;;;;;;;13.02;5.50;;;20.20;99.90;;;;;;4994900;28;20034;-76
2022/10/28 13:37:02;;;;;;;11.38;6.03;;;20.20;99.90;;;;;;4960954;28;20038;-77
2022/10/28 13:39:27;;;;;;;8.43;4.80;;;20.10;99.90;;;;;;4975441;28;20141;-77
2022/10/28 13:42:11;;;;;;;13.38;5.00;;;20.00;99.90;;;;;;4993006;28;20484;-76
2022/10/28 13:44:54;;;;;;;11.15;4.55;;;19.90;99.90;;;;;;4978609;28;20048;-76
2022/10/28 13:47:34;;;;;;;11.02;5.40;;;19.80;99.90;;;;;;4993639;28;20042;-77
2022/10/28 13:50:08;;;;;;;9.75;4.80;;;19.70;99.90;;;;;;4995847;28;20038;-76
2022/10/28 13:52:42;;;;;;;12.07;5.63;;;19.60;99.90;;;;;;5004273;28;20065;-77